sensor_id;sensor_type;location;lat;lon;timestamp;temperature;humidity
44229;DHT22;29904;51.058;5.378;2022-07-26T00:01:53;18.10;99.90
44229;DHT22;29904;51.058;5.378;2022-07-26T00:04:20;18.10;99.90
44229;DHT22;29904;51.058;5.378;2022-07-26T00:06:46;18.10;99.90
44229;DHT22;29904;51.058;5.378;2022-07-26T00:09:12;18.00;99.90
44229;DHT22;29904;51.058;5.378;2022-07-26T00:11:38;18.00;99.90
44229;DHT22;29904;51.058;5.378;2022-07-26T00:14:05;17.90;99.90
44229;DHT22;29904;51.058;5.378;2022-07-26T00:16:31;17.90;99.90
44229;DHT22;29904;51.058;5.378;2022-07-26T00:18:58;17.90;99.90
44229;DHT22;29904;51.058;5.378;2022-07-26T00:21:26;18.00;99.90
44229;DHT22;29904;51.058;5.378;2022-07-26T00:23:51;17.90;99.90
44229;DHT22;29904;51.058;5.378;2022-07-26T00:26:18;17.90;99.90
44229;DHT22;29904;51.058;5.378;2022-07-26T00:28:45;17.90;99.90
44229;DHT22;29904;51.058;5.378;2022-07-26T00:31:13;17.90;99.90
44229;DHT22;29904;51.058;5.378;2022-07-26T00:33:39;17.90;99.90
44229;DHT22;29904;51.058;5.378;2022-07-26T00:36:05;17.90;99.90
44229;DHT22;29904;51.058;5.378;2022-07-26T00:38:31;17.80;99.90
44229;DHT22;29904;51.058;5.378;2022-07-26T00:40:57;17.70;99.90
44229;DHT22;29904;51.058;5.378;2022-07-26T00:43:23;17.60;99.90
44229;DHT22;29904;51.058;5.378;2022-07-26T00:45:49;17.60;99.90
44229;DHT22;29904;51.058;5.378;2022-07-26T00:48:16;17.50;99.90
44229;DHT22;29904;51.058;5.378;2022-07-26T00:50:42;17.50;99.90
44229;DHT22;29904;51.058;5.378;2022-07-26T00:53:08;17.40;99.90
44229;DHT22;29904;51.058;5.378;2022-07-26T00:55:35;17.30;99.90
44229;DHT22;29904;51.058;5.378;2022-07-26T00:58:01;17.30;99.90
44229;DHT22;29904;51.058;5.378;2022-07-26T01:00:28;17.20;99.90
44229;DHT22;29904;51.058;5.378;2022-07-26T01:02:56;17.20;99.90
44229;DHT22;29904;51.058;5.378;2022-07-26T01:05:23;17.20;99.90
44229;DHT22;29904;51.058;5.378;2022-07-26T01:07:49;17.10;99.90
44229;DHT22;29904;51.058;5.378;2022-07-26T01:10:15;17.10;99.90
44229;DHT22;29904;51.058;5.378;2022-07-26T01:12:41;17.00;99.90
44229;DHT22;29904;51.058;5.378;2022-07-26T01:15:09;17.00;99.90
44229;DHT22;29904;51.058;5.378;2022-07-26T01:17:35;17.00;99.90
44229;DHT22;29904;51.058;5.378;2022-07-26T01:20:01;16.90;99.90
44229;DHT22;29904;51.058;5.378;2022-07-26T01:22:27;16.90;99.90
44229;DHT22;29904;51.058;5.378;2022-07-26T01:24:52;16.90;99.90
44229;DHT22;29904;51.058;5.378;2022-07-26T01:27:18;16.90;99.90
44229;DHT22;29904;51.058;5.378;2022-07-26T01:29:44;16.80;99.90
44229;DHT22;29904;51.058;5.378;2022-07-26T01:32:10;16.80;99.90
44229;DHT22;29904;51.058;5.378;2022-07-26T01:34:37;16.70;99.90
44229;DHT22;29904;51.058;5.378;2022-07-26T01:37:03;16.70;99.90
44229;DHT22;29904;51.058;5.378;2022-07-26T01:39:30;16.70;99.90
44229;DHT22;29904;51.058;5.378;2022-07-26T01:41:57;16.70;99.90
44229;DHT22;29904;51.058;5.378;2022-07-26T01:44:23;16.70;99.90
44229;DHT22;29904;51.058;5.378;2022-07-26T01:46:49;16.70;99.90
44229;DHT22;29904;51.058;5.378;2022-07-26T01:49:15;16.70;99.90
44229;DHT22;29904;51.058;5.378;2022-07-26T01:51:40;16.70;99.90
44229;DHT22;29904;51.058;5.378;2022-07-26T01:54:06;16.80;99.90
44229;DHT22;29904;51.058;5.378;2022-07-26T01:56:34;16.80;99.90
44229;DHT22;29904;51.058;5.378;2022-07-26T01:59:00;16.70;99.90
44229;DHT22;29904;51.058;5.378;2022-07-26T02:01:26;16.80;99.90
44229;DHT22;29904;51.058;5.378;2022-07-26T02:03:53;16.70;99.90
44229;DHT22;29904;51.058;5.378;2022-07-26T02:06:19;16.80;99.90
44229;DHT22;29904;51.058;5.378;2022-07-26T02:08:45;16.90;99.90
44229;DHT22;29904;51.058;5.378;2022-07-26T02:11:12;16.90;99.90
44229;DHT22;29904;51.058;5.378;2022-07-26T02:13:40;16.90;99.90
44229;DHT22;29904;51.058;5.378;2022-07-26T02:16:08;17.00;99.90
44229;DHT22;29904;51.058;5.378;2022-07-26T02:18:34;17.00;99.90
44229;DHT22;29904;51.058;5.378;2022-07-26T02:21:03;17.10;99.90
44229;DHT22;29904;51.058;5.378;2022-07-26T02:23:30;17.10;99.90
44229;DHT22;29904;51.058;5.378;2022-07-26T02:25:58;17.10;99.90
44229;DHT22;29904;51.058;5.378;2022-07-26T02:28:25;17.20;99.90
44229;DHT22;29904;51.058;5.378;2022-07-26T02:30:51;17.20;99.90
44229;DHT22;29904;51.058;5.378;2022-07-26T02:33:17;17.20;99.90
44229;DHT22;29904;51.058;5.378;2022-07-26T02:35:44;17.20;99.90
44229;DHT22;29904;51.058;5.378;2022-07-26T02:38:12;17.20;99.90
44229;DHT22;29904;51.058;5.378;2022-07-26T02:40:38;17.20;99.90
44229;DHT22;29904;51.058;5.378;2022-07-26T02:43:06;17.20;99.90
44229;DHT22;29904;51.058;5.378;2022-07-26T02:45:32;17.30;99.90
44229;DHT22;29904;51.058;5.378;2022-07-26T02:48:00;17.30;99.90
44229;DHT22;29904;51.058;5.378;2022-07-26T02:50:27;17.30;99.90
44229;DHT22;29904;51.058;5.378;2022-07-26T02:52:53;17.30;99.90
44229;DHT22;29904;51.058;5.378;2022-07-26T02:55:22;17.40;99.90
44229;DHT22;29904;51.058;5.378;2022-07-26T02:57:48;17.40;99.90
44229;DHT22;29904;51.058;5.378;2022-07-26T03:00:21;17.40;99.90
44229;DHT22;29904;51.058;5.378;2022-07-26T03:02:47;17.40;99.90
44229;DHT22;29904;51.058;5.378;2022-07-26T03:05:13;17.40;99.90
44229;DHT22;29904;51.058;5.378;2022-07-26T03:07:39;17.40;99.90
44229;DHT22;29904;51.058;5.378;2022-07-26T03:10:05;17.40;99.90
44229;DHT22;29904;51.058;5.378;2022-07-26T03:12:31;17.40;99.90
44229;DHT22;29904;51.058;5.378;2022-07-26T03:14:57;17.40;99.90
44229;DHT22;29904;51.058;5.378;2022-07-26T03:17:25;17.40;99.90
44229;DHT22;29904;51.058;5.378;2022-07-26T03:19:51;17.40;99.90
44229;DHT22;29904;51.058;5.378;2022-07-26T03:22:16;17.40;99.90
44229;DHT22;29904;51.058;5.378;2022-07-26T03:24:44;17.40;99.90
44229;DHT22;29904;51.058;5.378;2022-07-26T03:27:10;17.50;99.90
44229;DHT22;29904;51.058;5.378;2022-07-26T03:29:35;17.50;99.90
44229;DHT22;29904;51.058;5.378;2022-07-26T03:32:02;17.50;99.90
44229;DHT22;29904;51.058;5.378;2022-07-26T03:34:27;17.50;99.90
44229;DHT22;29904;51.058;5.378;2022-07-26T03:36:53;17.60;99.90
44229;DHT22;29904;51.058;5.378;2022-07-26T03:39:20;17.50;99.90
44229;DHT22;29904;51.058;5.378;2022-07-26T03:41:46;17.50;99.90
44229;DHT22;29904;51.058;5.378;2022-07-26T03:44:12;17.50;99.90
44229;DHT22;29904;51.058;5.378;2022-07-26T03:46:38;17.60;99.90
44229;DHT22;29904;51.058;5.378;2022-07-26T03:49:03;17.50;99.90
44229;DHT22;29904;51.058;5.378;2022-07-26T03:51:31;17.60;99.90
44229;DHT22;29904;51.058;5.378;2022-07-26T03:53:58;17.50;99.90
44229;DHT22;29904;51.058;5.378;2022-07-26T03:56:24;17.60;99.90
44229;DHT22;29904;51.058;5.378;2022-07-26T03:59:04;17.50;99.90
44229;DHT22;29904;51.058;5.378;2022-07-26T04:01:30;17.50;99.90
44229;DHT22;29904;51.058;5.378;2022-07-26T04:03:56;17.50;99.90
44229;DHT22;29904;51.058;5.378;2022-07-26T04:06:24;17.50;99.90
44229;DHT22;29904;51.058;5.378;2022-07-26T04:08:50;17.60;99.90
44229;DHT22;29904;51.058;5.378;2022-07-26T04:11:16;17.60;99.90
44229;DHT22;29904;51.058;5.378;2022-07-26T04:13:41;17.60;99.90
44229;DHT22;29904;51.058;5.378;2022-07-26T04:16:07;17.60;99.90
44229;DHT22;29904;51.058;5.378;2022-07-26T04:18:33;17.60;99.90
44229;DHT22;29904;51.058;5.378;2022-07-26T04:21:01;17.60;99.90
44229;DHT22;29904;51.058;5.378;2022-07-26T04:23:26;17.60;99.90
44229;DHT22;29904;51.058;5.378;2022-07-26T04:25:52;17.60;99.90
44229;DHT22;29904;51.058;5.378;2022-07-26T04:28:20;17.60;99.90
44229;DHT22;29904;51.058;5.378;2022-07-26T04:30:46;17.60;99.90
44229;DHT22;29904;51.058;5.378;2022-07-26T04:33:12;17.60;99.90
44229;DHT22;29904;51.058;5.378;2022-07-26T04:35:38;17.60;99.90
44229;DHT22;29904;51.058;5.378;2022-07-26T04:38:03;17.60;99.90
44229;DHT22;29904;51.058;5.378;2022-07-26T04:40:29;17.60;99.90
44229;DHT22;29904;51.058;5.378;2022-07-26T04:43:00;17.60;99.90
44229;DHT22;29904;51.058;5.378;2022-07-26T04:45:26;17.70;99.90
44229;DHT22;29904;51.058;5.378;2022-07-26T04:47:52;17.70;99.90
44229;DHT22;29904;51.058;5.378;2022-07-26T04:50:20;17.70;99.90
44229;DHT22;29904;51.058;5.378;2022-07-26T04:52:47;17.70;99.90
44229;DHT22;29904;51.058;5.378;2022-07-26T04:55:13;17.70;99.90
44229;DHT22;29904;51.058;5.378;2022-07-26T04:57:39;17.70;99.90
44229;DHT22;29904;51.058;5.378;2022-07-26T05:00:07;17.70;99.90
44229;DHT22;29904;51.058;5.378;2022-07-26T05:02:33;17.80;99.90
44229;DHT22;29904;51.058;5.378;2022-07-26T05:05:01;17.80;99.90
44229;DHT22;29904;51.058;5.378;2022-07-26T05:07:27;17.90;99.90
44229;DHT22;29904;51.058;5.378;2022-07-26T05:09:53;17.90;99.90
44229;DHT22;29904;51.058;5.378;2022-07-26T05:12:20;17.90;99.90
44229;DHT22;29904;51.058;5.378;2022-07-26T05:14:46;17.90;99.90
44229;DHT22;29904;51.058;5.378;2022-07-26T05:17:12;18.00;99.90
44229;DHT22;29904;51.058;5.378;2022-07-26T05:19:37;18.00;99.90
44229;DHT22;29904;51.058;5.378;2022-07-26T05:22:03;18.10;99.90
44229;DHT22;29904;51.058;5.378;2022-07-26T05:24:29;18.00;99.90
44229;DHT22;29904;51.058;5.378;2022-07-26T05:26:54;18.00;99.90
44229;DHT22;29904;51.058;5.378;2022-07-26T05:29:20;18.10;99.90
44229;DHT22;29904;51.058;5.378;2022-07-26T05:31:45;18.20;99.90
44229;DHT22;29904;51.058;5.378;2022-07-26T05:34:11;18.20;99.90
44229;DHT22;29904;51.058;5.378;2022-07-26T05:36:38;18.30;99.90
44229;DHT22;29904;51.058;5.378;2022-07-26T05:39:04;18.40;99.90
44229;DHT22;29904;51.058;5.378;2022-07-26T05:41:30;18.50;99.90
44229;DHT22;29904;51.058;5.378;2022-07-26T05:43:56;18.60;99.90
44229;DHT22;29904;51.058;5.378;2022-07-26T05:46:21;18.60;99.90
44229;DHT22;29904;51.058;5.378;2022-07-26T05:48:49;19.60;99.90
44229;DHT22;29904;51.058;5.378;2022-07-26T05:51:15;18.80;99.90
44229;DHT22;29904;51.058;5.378;2022-07-26T05:53:40;18.90;99.90
44229;DHT22;29904;51.058;5.378;2022-07-26T05:56:06;18.90;99.90
44229;DHT22;29904;51.058;5.378;2022-07-26T05:58:32;19.00;99.90
44229;DHT22;29904;51.058;5.378;2022-07-26T06:00:58;19.00;99.90
44229;DHT22;29904;51.058;5.378;2022-07-26T06:03:26;19.10;99.90
44229;DHT22;29904;51.058;5.378;2022-07-26T06:05:53;19.10;99.90
44229;DHT22;29904;51.058;5.378;2022-07-26T06:08:21;19.20;99.90
44229;DHT22;29904;51.058;5.378;2022-07-26T06:10:48;19.30;99.90
44229;DHT22;29904;51.058;5.378;2022-07-26T06:13:14;19.40;99.90
44229;DHT22;29904;51.058;5.378;2022-07-26T06:15:42;19.40;99.90
44229;DHT22;29904;51.058;5.378;2022-07-26T06:18:08;19.40;99.90
44229;DHT22;29904;51.058;5.378;2022-07-26T06:20:38;19.40;99.90
44229;DHT22;29904;51.058;5.378;2022-07-26T06:23:06;19.40;99.90
44229;DHT22;29904;51.058;5.378;2022-07-26T06:25:32;19.60;99.90
44229;DHT22;29904;51.058;5.378;2022-07-26T06:27:57;19.60;99.90
44229;DHT22;29904;51.058;5.378;2022-07-26T06:30:23;19.60;99.90
44229;DHT22;29904;51.058;5.378;2022-07-26T06:32:49;19.70;99.90
44229;DHT22;29904;51.058;5.378;2022-07-26T06:35:15;19.80;99.90
44229;DHT22;29904;51.058;5.378;2022-07-26T06:37:41;19.80;99.90
44229;DHT22;29904;51.058;5.378;2022-07-26T06:40:09;19.90;99.90
44229;DHT22;29904;51.058;5.378;2022-07-26T06:42:37;20.00;99.90
44229;DHT22;29904;51.058;5.378;2022-07-26T06:45:03;20.10;99.90
44229;DHT22;29904;51.058;5.378;2022-07-26T06:47:29;20.20;99.90
44229;DHT22;29904;51.058;5.378;2022-07-26T06:49:57;20.20;99.90
44229;DHT22;29904;51.058;5.378;2022-07-26T06:52:23;20.40;99.90
44229;DHT22;29904;51.058;5.378;2022-07-26T06:54:49;20.50;99.90
44229;DHT22;29904;51.058;5.378;2022-07-26T06:57:16;20.70;99.90
44229;DHT22;29904;51.058;5.378;2022-07-26T06:59:44;20.80;99.90
44229;DHT22;29904;51.058;5.378;2022-07-26T07:02:09;20.80;99.90
44229;DHT22;29904;51.058;5.378;2022-07-26T07:04:35;20.80;99.90
44229;DHT22;29904;51.058;5.378;2022-07-26T07:07:03;20.80;99.90
44229;DHT22;29904;51.058;5.378;2022-07-26T07:09:33;20.80;99.90
44229;DHT22;29904;51.058;5.378;2022-07-26T07:11:59;20.80;99.90
44229;DHT22;29904;51.058;5.378;2022-07-26T07:14:27;20.80;99.90
44229;DHT22;29904;51.058;5.378;2022-07-26T07:16:54;20.80;99.90
44229;DHT22;29904;51.058;5.378;2022-07-26T07:19:21;20.80;99.90
44229;DHT22;29904;51.058;5.378;2022-07-26T07:21:47;20.80;99.90
44229;DHT22;29904;51.058;5.378;2022-07-26T07:24:13;20.80;99.90
44229;DHT22;29904;51.058;5.378;2022-07-26T07:26:39;20.90;99.90
44229;DHT22;29904;51.058;5.378;2022-07-26T07:29:05;20.90;99.90
44229;DHT22;29904;51.058;5.378;2022-07-26T07:31:32;21.00;99.90
44229;DHT22;29904;51.058;5.378;2022-07-26T07:34:03;21.20;99.90
44229;DHT22;29904;51.058;5.378;2022-07-26T07:36:29;21.60;99.90
44229;DHT22;29904;51.058;5.378;2022-07-26T07:38:54;22.00;99.90
44229;DHT22;29904;51.058;5.378;2022-07-26T07:41:22;22.30;99.90
44229;DHT22;29904;51.058;5.378;2022-07-26T07:43:48;22.40;99.90
44229;DHT22;29904;51.058;5.378;2022-07-26T07:46:14;22.50;99.90
44229;DHT22;29904;51.058;5.378;2022-07-26T07:48:40;22.50;99.90
44229;DHT22;29904;51.058;5.378;2022-07-26T07:51:06;22.50;99.90
44229;DHT22;29904;51.058;5.378;2022-07-26T07:53:32;22.60;99.90
44229;DHT22;29904;51.058;5.378;2022-07-26T07:55:58;23.00;99.90
44229;DHT22;29904;51.058;5.378;2022-07-26T07:58:24;23.10;99.90
44229;DHT22;29904;51.058;5.378;2022-07-26T08:00:49;23.20;99.90
44229;DHT22;29904;51.058;5.378;2022-07-26T08:03:15;23.10;99.90
44229;DHT22;29904;51.058;5.378;2022-07-26T08:05:41;23.30;99.90
44229;DHT22;29904;51.058;5.378;2022-07-26T08:08:07;23.40;99.90
44229;DHT22;29904;51.058;5.378;2022-07-26T08:10:33;23.50;99.90
44229;DHT22;29904;51.058;5.378;2022-07-26T08:12:59;23.50;99.90
44229;DHT22;29904;51.058;5.378;2022-07-26T08:15:24;23.40;99.90
44229;DHT22;29904;51.058;5.378;2022-07-26T08:17:52;23.30;99.90
44229;DHT22;29904;51.058;5.378;2022-07-26T08:20:18;23.20;99.90
44229;DHT22;29904;51.058;5.378;2022-07-26T08:22:46;23.20;99.90
44229;DHT22;29904;51.058;5.378;2022-07-26T08:25:12;23.20;99.90
44229;DHT22;29904;51.058;5.378;2022-07-26T08:27:37;23.30;99.90
44229;DHT22;29904;51.058;5.378;2022-07-26T08:30:05;23.30;99.90
44229;DHT22;29904;51.058;5.378;2022-07-26T08:32:33;23.30;99.90
44229;DHT22;29904;51.058;5.378;2022-07-26T08:34:58;23.20;99.90
44229;DHT22;29904;51.058;5.378;2022-07-26T08:37:26;23.10;99.90
44229;DHT22;29904;51.058;5.378;2022-07-26T08:39:51;22.90;99.90
44229;DHT22;29904;51.058;5.378;2022-07-26T08:42:21;22.70;99.90
44229;DHT22;29904;51.058;5.378;2022-07-26T08:44:48;22.50;99.90
44229;DHT22;29904;51.058;5.378;2022-07-26T08:47:16;22.30;99.90
44229;DHT22;29904;51.058;5.378;2022-07-26T08:49:42;22.20;99.90
44229;DHT22;29904;51.058;5.378;2022-07-26T08:52:09;22.10;99.90
44229;DHT22;29904;51.058;5.378;2022-07-26T08:54:35;22.00;99.90
44229;DHT22;29904;51.058;5.378;2022-07-26T08:57:02;21.90;99.90
44229;DHT22;29904;51.058;5.378;2022-07-26T08:59:27;22.00;99.90
44229;DHT22;29904;51.058;5.378;2022-07-26T09:02:04;22.10;99.90
44229;DHT22;29904;51.058;5.378;2022-07-26T09:04:32;22.10;99.90
44229;DHT22;29904;51.058;5.378;2022-07-26T09:07:08;22.10;99.90
44229;DHT22;29904;51.058;5.378;2022-07-26T09:12:22;22.20;99.90
44229;DHT22;29904;51.058;5.378;2022-07-26T09:14:48;22.20;99.90
44229;DHT22;29904;51.058;5.378;2022-07-26T09:17:17;22.20;99.90
44229;DHT22;29904;51.058;5.378;2022-07-26T09:19:44;22.30;99.90
44229;DHT22;29904;51.058;5.378;2022-07-26T09:22:14;22.40;99.90
44229;DHT22;29904;51.058;5.378;2022-07-26T09:24:45;22.30;99.90
44229;DHT22;29904;51.058;5.378;2022-07-26T09:27:13;22.30;99.90
44229;DHT22;29904;51.058;5.378;2022-07-26T09:32:19;22.30;99.90
44229;DHT22;29904;51.058;5.378;2022-07-26T09:34:56;22.40;99.90
44229;DHT22;29904;51.058;5.378;2022-07-26T09:37:41;22.30;99.90
44229;DHT22;29904;51.058;5.378;2022-07-26T09:40:13;22.40;99.90
44229;DHT22;29904;51.058;5.378;2022-07-26T09:42:57;22.40;99.90
44229;DHT22;29904;51.058;5.378;2022-07-26T09:45:24;22.40;99.90
44229;DHT22;29904;51.058;5.378;2022-07-26T09:47:49;22.50;99.90
44229;DHT22;29904;51.058;5.378;2022-07-26T09:50:21;22.60;99.90
44229;DHT22;29904;51.058;5.378;2022-07-26T09:53:09;22.90;99.90
44229;DHT22;29904;51.058;5.378;2022-07-26T09:58:15;23.10;99.90
44229;DHT22;29904;51.058;5.378;2022-07-26T10:00:43;23.10;99.90
44229;DHT22;29904;51.058;5.378;2022-07-26T10:03:09;23.30;99.90
44229;DHT22;29904;51.058;5.378;2022-07-26T10:05:35;23.30;99.90
44229;DHT22;29904;51.058;5.378;2022-07-26T10:08:03;23.60;99.90
44229;DHT22;29904;51.058;5.378;2022-07-26T10:10:32;23.80;99.90
44229;DHT22;29904;51.058;5.378;2022-07-26T10:12:58;23.90;99.90
44229;DHT22;29904;51.058;5.378;2022-07-26T10:23:57;24.50;99.90
44229;DHT22;29904;51.058;5.378;2022-07-26T10:29:19;25.20;99.90
44229;DHT22;29904;51.058;5.378;2022-07-26T10:31:46;25.80;99.90
44229;DHT22;29904;51.058;5.378;2022-07-26T10:34:34;26.10;99.90
44229;DHT22;29904;51.058;5.378;2022-07-26T10:37:03;25.70;99.90
44229;DHT22;29904;51.058;5.378;2022-07-26T10:39:29;25.70;99.90
44229;DHT22;29904;51.058;5.378;2022-07-26T10:42:06;25.80;99.90
44229;DHT22;29904;51.058;5.378;2022-07-26T10:44:38;25.90;99.90
44229;DHT22;29904;51.058;5.378;2022-07-26T10:49:39;27.10;99.90
44229;DHT22;29904;51.058;5.378;2022-07-26T10:52:15;27.50;99.90
44229;DHT22;29904;51.058;5.378;2022-07-26T10:57:34;27.20;99.90
44229;DHT22;29904;51.058;5.378;2022-07-26T11:00:00;27.00;99.90
44229;DHT22;29904;51.058;5.378;2022-07-26T11:02:28;26.80;99.90
44229;DHT22;29904;51.058;5.378;2022-07-26T11:05:11;26.40;99.90
44229;DHT22;29904;51.058;5.378;2022-07-26T11:08:04;26.60;99.90
44229;DHT22;29904;51.058;5.378;2022-07-26T11:10:40;26.50;99.90
44229;DHT22;29904;51.058;5.378;2022-07-26T11:13:20;26.50;99.90
44229;DHT22;29904;51.058;5.378;2022-07-26T11:15:51;26.40;99.90
44229;DHT22;29904;51.058;5.378;2022-07-26T11:18:23;25.90;99.90
44229;DHT22;29904;51.058;5.378;2022-07-26T11:20:53;25.70;99.90
44229;DHT22;29904;51.058;5.378;2022-07-26T11:23:30;25.70;99.90
44229;DHT22;29904;51.058;5.378;2022-07-26T11:26:04;25.70;99.90
44229;DHT22;29904;51.058;5.378;2022-07-26T11:28:42;25.80;99.90
44229;DHT22;29904;51.058;5.378;2022-07-26T11:31:07;26.30;99.90
44229;DHT22;29904;51.058;5.378;2022-07-26T11:33:38;26.40;99.90
44229;DHT22;29904;51.058;5.378;2022-07-26T11:36:04;26.10;99.90
44229;DHT22;29904;51.058;5.378;2022-07-26T11:38:52;25.30;99.90
44229;DHT22;29904;51.058;5.378;2022-07-26T11:41:25;24.60;99.90
44229;DHT22;29904;51.058;5.378;2022-07-26T11:43:54;23.80;99.90
44229;DHT22;29904;51.058;5.378;2022-07-26T11:46:21;23.50;99.90
44229;DHT22;29904;51.058;5.378;2022-07-26T11:48:48;23.20;99.90
44229;DHT22;29904;51.058;5.378;2022-07-26T11:51:16;22.80;99.90
44229;DHT22;29904;51.058;5.378;2022-07-26T11:53:42;22.70;99.90
44229;DHT22;29904;51.058;5.378;2022-07-26T11:56:21;22.50;99.90
44229;DHT22;29904;51.058;5.378;2022-07-26T11:58:49;22.50;99.90
44229;DHT22;29904;51.058;5.378;2022-07-26T12:01:19;22.40;99.90
44229;DHT22;29904;51.058;5.378;2022-07-26T12:03:48;22.30;99.90
44229;DHT22;29904;51.058;5.378;2022-07-26T12:06:22;22.60;99.90
44229;DHT22;29904;51.058;5.378;2022-07-26T12:08:52;23.00;99.90
44229;DHT22;29904;51.058;5.378;2022-07-26T12:11:19;23.40;99.90
44229;DHT22;29904;51.058;5.378;2022-07-26T12:14:00;23.50;99.90
44229;DHT22;29904;51.058;5.378;2022-07-26T12:16:36;23.60;99.90
44229;DHT22;29904;51.058;5.378;2022-07-26T12:19:05;23.30;99.90
44229;DHT22;29904;51.058;5.378;2022-07-26T12:21:52;23.30;99.90
44229;DHT22;29904;51.058;5.378;2022-07-26T12:27:19;23.30;99.90
44229;DHT22;29904;51.058;5.378;2022-07-26T12:29:53;23.40;99.90
44229;DHT22;29904;51.058;5.378;2022-07-26T12:32:22;23.30;99.90
44229;DHT22;29904;51.058;5.378;2022-07-26T12:37:28;23.30;99.90
44229;DHT22;29904;51.058;5.378;2022-07-26T12:40:00;23.40;99.90
44229;DHT22;29904;51.058;5.378;2022-07-26T12:42:34;23.40;99.90
44229;DHT22;29904;51.058;5.378;2022-07-26T12:45:01;23.40;99.90
44229;DHT22;29904;51.058;5.378;2022-07-26T12:47:27;23.50;99.90
44229;DHT22;29904;51.058;5.378;2022-07-26T12:49:53;23.20;99.90
44229;DHT22;29904;51.058;5.378;2022-07-26T12:52:21;23.30;99.90
44229;DHT22;29904;51.058;5.378;2022-07-26T12:54:49;23.40;99.90
44229;DHT22;29904;51.058;5.378;2022-07-26T12:57:16;23.30;99.90
44229;DHT22;29904;51.058;5.378;2022-07-26T12:59:45;23.70;99.90
44229;DHT22;29904;51.058;5.378;2022-07-26T13:02:11;24.20;99.90
44229;DHT22;29904;51.058;5.378;2022-07-26T13:04:37;24.30;99.90
44229;DHT22;29904;51.058;5.378;2022-07-26T13:07:05;24.20;99.90
44229;DHT22;29904;51.058;5.378;2022-07-26T13:09:33;24.00;99.90
44229;DHT22;29904;51.058;5.378;2022-07-26T13:12:00;24.00;99.90
44229;DHT22;29904;51.058;5.378;2022-07-26T13:14:26;24.20;99.90
44229;DHT22;29904;51.058;5.378;2022-07-26T13:16:52;24.30;99.90
44229;DHT22;29904;51.058;5.378;2022-07-26T13:19:18;24.10;99.90
44229;DHT22;29904;51.058;5.378;2022-07-26T13:21:44;24.20;99.90
44229;DHT22;29904;51.058;5.378;2022-07-26T13:24:11;24.40;99.90
44229;DHT22;29904;51.058;5.378;2022-07-26T13:26:37;24.50;99.90
44229;DHT22;29904;51.058;5.378;2022-07-26T13:29:03;24.80;99.90
44229;DHT22;29904;51.058;5.378;2022-07-26T13:31:31;24.50;99.90
44229;DHT22;29904;51.058;5.378;2022-07-26T13:33:57;24.20;99.90
44229;DHT22;29904;51.058;5.378;2022-07-26T13:36:23;24.00;99.90
44229;DHT22;29904;51.058;5.378;2022-07-26T13:38:49;23.90;99.90
44229;DHT22;29904;51.058;5.378;2022-07-26T13:41:14;23.70;99.90
44229;DHT22;29904;51.058;5.378;2022-07-26T13:43:40;23.40;99.90
44229;DHT22;29904;51.058;5.378;2022-07-26T13:46:08;23.20;99.90
44229;DHT22;29904;51.058;5.378;2022-07-26T13:48:33;22.90;99.90
44229;DHT22;29904;51.058;5.378;2022-07-26T13:50:59;23.00;99.90
44229;DHT22;29904;51.058;5.378;2022-07-26T13:53:25;23.30;99.90
44229;DHT22;29904;51.058;5.378;2022-07-26T13:55:51;23.30;99.90
44229;DHT22;29904;51.058;5.378;2022-07-26T13:58:17;23.60;99.90
44229;DHT22;29904;51.058;5.378;2022-07-26T14:00:46;23.70;99.90
44229;DHT22;29904;51.058;5.378;2022-07-26T14:03:12;23.90;99.90
44229;DHT22;29904;51.058;5.378;2022-07-26T14:05:38;24.00;99.90
44229;DHT22;29904;51.058;5.378;2022-07-26T14:08:06;24.00;99.90
44229;DHT22;29904;51.058;5.378;2022-07-26T14:10:32;24.00;99.90
44229;DHT22;29904;51.058;5.378;2022-07-26T14:13:02;24.20;99.90
44229;DHT22;29904;51.058;5.378;2022-07-26T14:15:28;24.20;99.90
44229;DHT22;29904;51.058;5.378;2022-07-26T14:17:55;24.20;99.90
44229;DHT22;29904;51.058;5.378;2022-07-26T14:20:21;23.90;99.90
44229;DHT22;29904;51.058;5.378;2022-07-26T14:22:47;23.60;99.90
44229;DHT22;29904;51.058;5.378;2022-07-26T14:25:18;23.50;99.90
44229;DHT22;29904;51.058;5.378;2022-07-26T14:27:44;23.20;99.90
44229;DHT22;29904;51.058;5.378;2022-07-26T14:30:10;22.90;99.90
44229;DHT22;29904;51.058;5.378;2022-07-26T14:32:36;22.60;99.90
44229;DHT22;29904;51.058;5.378;2022-07-26T14:35:04;22.50;99.90
44229;DHT22;29904;51.058;5.378;2022-07-26T14:37:30;22.30;99.90
44229;DHT22;29904;51.058;5.378;2022-07-26T14:39:56;22.10;99.90
44229;DHT22;29904;51.058;5.378;2022-07-26T14:42:23;22.00;99.90
44229;DHT22;29904;51.058;5.378;2022-07-26T14:44:49;22.20;99.90
44229;DHT22;29904;51.058;5.378;2022-07-26T14:47:15;22.40;99.90
44229;DHT22;29904;51.058;5.378;2022-07-26T14:49:42;22.00;99.90
44229;DHT22;29904;51.058;5.378;2022-07-26T14:52:08;21.70;99.90
44229;DHT22;29904;51.058;5.378;2022-07-26T14:54:35;21.70;99.90
44229;DHT22;29904;51.058;5.378;2022-07-26T14:57:01;21.60;99.90
44229;DHT22;29904;51.058;5.378;2022-07-26T14:59:26;21.50;99.90
44229;DHT22;29904;51.058;5.378;2022-07-26T15:01:52;21.20;99.90
44229;DHT22;29904;51.058;5.378;2022-07-26T15:04:18;21.00;99.90
44229;DHT22;29904;51.058;5.378;2022-07-26T15:06:44;20.80;99.90
44229;DHT22;29904;51.058;5.378;2022-07-26T15:09:11;20.70;99.90
44229;DHT22;29904;51.058;5.378;2022-07-26T15:11:37;20.40;99.90
44229;DHT22;29904;51.058;5.378;2022-07-26T15:14:04;20.30;99.90
44229;DHT22;29904;51.058;5.378;2022-07-26T15:16:29;20.30;99.90
44229;DHT22;29904;51.058;5.378;2022-07-26T15:18:56;20.40;99.90
44229;DHT22;29904;51.058;5.378;2022-07-26T15:21:22;20.20;99.90
44229;DHT22;29904;51.058;5.378;2022-07-26T15:23:49;20.10;99.90
44229;DHT22;29904;51.058;5.378;2022-07-26T15:26:15;20.20;99.90
44229;DHT22;29904;51.058;5.378;2022-07-26T15:28:41;20.20;99.90
44229;DHT22;29904;51.058;5.378;2022-07-26T15:31:09;20.30;99.90
44229;DHT22;29904;51.058;5.378;2022-07-26T15:33:37;20.50;99.90
44229;DHT22;29904;51.058;5.378;2022-07-26T15:36:03;20.70;99.90
44229;DHT22;29904;51.058;5.378;2022-07-26T15:38:28;20.50;99.90
44229;DHT22;29904;51.058;5.378;2022-07-26T15:40:54;20.10;99.90
44229;DHT22;29904;51.058;5.378;2022-07-26T15:43:22;20.20;99.90
44229;DHT22;29904;51.058;5.378;2022-07-26T15:45:48;20.20;99.90
44229;DHT22;29904;51.058;5.378;2022-07-26T15:48:13;20.20;99.90
44229;DHT22;29904;51.058;5.378;2022-07-26T15:50:41;20.20;99.90
44229;DHT22;29904;51.058;5.378;2022-07-26T15:53:08;20.10;99.90
44229;DHT22;29904;51.058;5.378;2022-07-26T15:55:33;20.10;99.90
44229;DHT22;29904;51.058;5.378;2022-07-26T15:58:00;20.10;99.90
44229;DHT22;29904;51.058;5.378;2022-07-26T16:00:30;20.20;99.90
44229;DHT22;29904;51.058;5.378;2022-07-26T16:02:56;20.30;99.90